createdAt,value
2023-05-22T00:01:56.867Z,20.90
2023-05-22T00:04:23.996Z,20.08
2023-05-22T00:06:50.987Z,19.23
2023-05-22T00:09:18.143Z,19.36
2023-05-22T00:11:45.233Z,19.70
2023-05-22T00:14:13.813Z,20.86
2023-05-22T00:16:41.481Z,20.50
2023-05-22T00:19:17.396Z,20.37
2023-05-22T00:21:44.841Z,20.14
2023-05-22T00:24:11.750Z,20.07
2023-05-22T00:26:38.762Z,20.39
2023-05-22T00:29:08.573Z,19.51
2023-05-22T00:31:35.561Z,18.43
2023-05-22T00:34:02.569Z,19.93
2023-05-22T00:36:29.568Z,20.39
2023-05-22T00:38:56.643Z,20.52
2023-05-22T00:41:23.553Z,20.29
2023-05-22T00:43:51.453Z,20.14
2023-05-22T00:46:21.750Z,20.05
2023-05-22T00:48:49.283Z,19.09
2023-05-22T00:51:16.371Z,18.97
2023-05-22T00:53:43.837Z,18.92
2023-05-22T00:56:10.889Z,19.30
2023-05-22T00:58:37.850Z,18.95
2023-05-22T01:01:07.854Z,18.56
2023-05-22T01:03:36.184Z,19.08
2023-05-22T01:06:03.763Z,19.41
2023-05-22T01:08:30.719Z,19.57
2023-05-22T01:11:04.947Z,19.63
2023-05-22T01:13:49.847Z,19.21
2023-05-22T01:16:19.038Z,19.13
2023-05-22T01:19:03.241Z,17.98
2023-05-22T01:22:16.595Z,19.02
2023-05-22T01:25:17.473Z,19.75
2023-05-22T01:28:22.456Z,19.91
2023-05-22T01:30:51.094Z,20.59
2023-05-22T01:33:18.630Z,20.41
2023-05-22T01:35:48.553Z,20.37
2023-05-22T01:38:16.096Z,19.96
2023-05-22T01:40:45.158Z,19.43
2023-05-22T01:43:13.641Z,19.21
2023-05-22T01:45:40.609Z,19.32
2023-05-22T01:48:07.773Z,19.18
2023-05-22T01:50:34.841Z,19.69
2023-05-22T01:53:50.446Z,20.11
2023-05-22T01:56:22.562Z,19.87
2023-05-22T01:58:54.282Z,19.82
2023-05-22T02:01:22.812Z,19.91
2023-05-22T02:03:52.014Z,19.67
2023-05-22T02:06:20.025Z,19.85
2023-05-22T02:08:47.605Z,19.62
2023-05-22T02:11:15.628Z,19.71
2023-05-22T02:13:42.794Z,20.53
2023-05-22T02:16:09.875Z,19.76
2023-05-22T02:18:36.831Z,19.73
2023-05-22T02:21:05.896Z,19.77
2023-05-22T02:23:32.850Z,20.37
2023-05-22T02:25:59.875Z,20.17
2023-05-22T02:28:27.410Z,19.79
2023-05-22T02:30:54.309Z,19.45
2023-05-22T02:33:21.595Z,18.75
2023-05-22T02:35:48.520Z,19.01
2023-05-22T02:38:15.468Z,19.61
2023-05-22T02:40:42.542Z,19.63
2023-05-22T02:43:09.558Z,19.57
2023-05-22T02:45:36.416Z,19.68
2023-05-22T02:48:03.947Z,19.80
2023-05-22T02:50:30.967Z,19.65
2023-05-22T02:52:57.982Z,19.91
2023-05-22T02:55:24.941Z,19.28
2023-05-22T02:57:51.864Z,19.51
2023-05-22T03:00:19.504Z,19.69
2023-05-22T03:02:46.462Z,19.58
2023-05-22T03:05:18.172Z,20.46
2023-05-22T03:07:48.312Z,19.97
2023-05-22T03:10:15.870Z,19.19
2023-05-22T03:12:42.773Z,19.36
2023-05-22T03:15:10.452Z,19.68
2023-05-22T03:17:37.337Z,19.90
2023-05-22T03:20:05.540Z,20.31
2023-05-22T03:22:32.665Z,19.52
2023-05-22T03:24:59.597Z,19.23
2023-05-22T03:27:26.451Z,19.03
2023-05-22T03:29:53.466Z,19.13
2023-05-22T03:32:20.376Z,19.32
2023-05-22T03:34:47.260Z,19.67
2023-05-22T03:37:14.181Z,20.10
2023-05-22T03:39:42.199Z,20.05
2023-05-22T03:42:09.241Z,19.89
2023-05-22T03:44:36.182Z,19.08
2023-05-22T03:47:03.162Z,19.58
2023-05-22T03:49:30.066Z,20.33
2023-05-22T03:51:57.079Z,20.32
2023-05-22T03:54:23.981Z,20.49
2023-05-22T03:56:51.344Z,21.77
2023-05-22T03:59:18.345Z,21.64
2023-05-22T04:01:47.270Z,21.10
2023-05-22T04:04:14.126Z,20.60
2023-05-22T04:06:44.064Z,21.92
2023-05-22T04:09:12.072Z,21.31
2023-05-22T04:11:42.666Z,21.07
2023-05-22T04:14:10.165Z,21.94
2023-05-22T04:16:37.178Z,22.89
2023-05-22T04:19:04.241Z,21.70
2023-05-22T04:21:34.458Z,22.40
2023-05-22T04:24:02.113Z,22.56
2023-05-22T04:26:32.237Z,22.64
2023-05-22T04:28:59.256Z,23.34
2023-05-22T04:31:26.214Z,24.39
2023-05-22T04:33:54.743Z,25.46
2023-05-22T04:36:26.832Z,25.57
2023-05-22T04:38:54.301Z,25.64
2023-05-22T04:41:28.062Z,25.02
2023-05-22T04:43:54.997Z,25.06
2023-05-22T04:46:22.712Z,25.03
2023-05-22T04:48:49.840Z,24.57
2023-05-22T04:51:16.805Z,24.38
2023-05-22T04:53:43.729Z,25.42
2023-05-22T04:56:12.987Z,25.24
2023-05-22T04:58:40.451Z,25.70
2023-05-22T05:01:07.401Z,27.01
2023-05-22T05:03:34.923Z,28.43
2023-05-22T05:06:01.896Z,28.66
2023-05-22T05:08:28.749Z,27.57
2023-05-22T05:10:55.683Z,27.71
2023-05-22T05:13:22.762Z,26.44
2023-05-22T05:15:49.701Z,26.08
2023-05-22T05:18:17.364Z,26.44
2023-05-22T05:20:44.367Z,26.29
2023-05-22T05:23:11.478Z,26.24
2023-05-22T05:25:38.895Z,25.93
2023-05-22T05:28:10.892Z,26.33
2023-05-22T05:30:40.814Z,26.74
2023-05-22T05:33:08.091Z,27.08
2023-05-22T05:35:35.128Z,26.25
2023-05-22T05:38:02.068Z,26.66
2023-05-22T05:40:29.034Z,26.01
2023-05-22T05:42:56.412Z,25.50
2023-05-22T05:45:23.318Z,25.50
2023-05-22T05:47:50.580Z,25.43
2023-05-22T05:50:17.853Z,26.05
2023-05-22T05:52:45.246Z,26.67
2023-05-22T05:55:12.192Z,26.64
2023-05-22T05:57:42.343Z,26.34
2023-05-22T06:00:14.798Z,26.35
2023-05-22T06:02:50.709Z,26.31
2023-05-22T06:05:19.579Z,25.99
2023-05-22T06:07:48.374Z,26.00
2023-05-22T06:10:15.746Z,25.77
2023-05-22T06:12:42.691Z,25.76
2023-05-22T06:15:09.629Z,25.24
2023-05-22T06:17:37.697Z,24.90
2023-05-22T06:20:08.316Z,25.48
2023-05-22T06:22:35.190Z,25.22
2023-05-22T06:25:02.089Z,25.25
2023-05-22T06:27:29.027Z,25.17
2023-05-22T06:29:56.635Z,25.08
2023-05-22T06:32:24.324Z,25.45
2023-05-22T06:34:51.379Z,25.47
2023-05-22T06:37:18.250Z,26.42
2023-05-22T06:39:45.164Z,25.48
2023-05-22T06:42:12.078Z,25.52
2023-05-22T06:44:38.960Z,26.07
2023-05-22T06:47:06.092Z,26.12
2023-05-22T06:49:33.013Z,25.65
2023-05-22T06:51:59.924Z,25.87
2023-05-22T06:54:28.874Z,26.27
2023-05-22T06:56:57.003Z,25.73
2023-05-22T06:59:23.874Z,25.74
2023-05-22T07:01:50.813Z,25.71
2023-05-22T07:04:17.775Z,25.47
2023-05-22T07:06:46.954Z,25.56
2023-05-22T07:09:15.640Z,25.95
2023-05-22T07:11:44.041Z,26.43
2023-05-22T07:14:12.780Z,26.55
2023-05-22T07:16:41.106Z,26.98
2023-05-22T07:19:09.355Z,26.27
2023-05-22T07:21:36.351Z,27.13
2023-05-22T07:24:09.666Z,27.48
2023-05-22T07:26:37.044Z,27.80
2023-05-22T07:29:04.677Z,28.12
2023-05-22T07:31:33.805Z,28.20
2023-05-22T07:34:00.800Z,27.90
2023-05-22T07:36:27.764Z,26.79
2023-05-22T07:38:55.707Z,28.14
2023-05-22T07:41:22.918Z,27.16
2023-05-22T07:43:50.369Z,26.81
2023-05-22T07:46:17.358Z,28.18
2023-05-22T07:48:44.448Z,27.87
2023-05-22T07:51:11.358Z,28.65
2023-05-22T07:53:38.204Z,28.60
2023-05-22T07:56:05.364Z,29.13
2023-05-22T07:58:32.332Z,29.84
2023-05-22T08:00:59.252Z,29.91
2023-05-22T08:03:26.357Z,29.61
2023-05-22T08:05:53.401Z,29.97
2023-05-22T08:08:21.524Z,29.37
2023-05-22T08:11:03.058Z,30.48
2023-05-22T08:13:31.436Z,31.11
2023-05-22T08:16:00.518Z,31.68
2023-05-22T08:18:29.652Z,32.12
2023-05-22T08:20:57.131Z,32.44
2023-05-22T08:23:24.074Z,32.80
2023-05-22T08:25:50.954Z,33.36
2023-05-22T08:28:27.692Z,33.25
2023-05-22T08:30:55.401Z,32.90
2023-05-22T08:33:22.612Z,33.22
2023-05-22T08:35:49.624Z,32.04
2023-05-22T08:38:17.656Z,31.54
2023-05-22T08:40:48.182Z,32.33
2023-05-22T08:43:15.691Z,32.18
2023-05-22T08:45:44.011Z,32.78
2023-05-22T08:48:13.571Z,32.45
2023-05-22T08:50:43.515Z,31.63
2023-05-22T08:53:13.290Z,32.02
2023-05-22T08:55:40.635Z,32.30
2023-05-22T08:58:08.760Z,31.56
2023-05-22T09:00:35.732Z,31.44
2023-05-22T09:03:03.230Z,31.71
2023-05-22T09:05:30.661Z,32.30
2023-05-22T09:08:02.626Z,32.26
2023-05-22T09:10:32.481Z,32.22
2023-05-22T09:13:09.689Z,31.76
2023-05-22T09:15:37.415Z,32.05
2023-05-22T09:18:05.608Z,32.12
2023-05-22T09:20:36.740Z,31.04
2023-05-22T09:23:14.645Z,30.60
2023-05-22T09:25:43.300Z,31.62
2023-05-22T09:28:11.810Z,31.75
2023-05-22T09:30:39.150Z,32.33
2023-05-22T09:33:09.544Z,31.98
2023-05-22T09:35:39.267Z,31.61
2023-05-22T09:38:06.764Z,32.31
2023-05-22T09:40:35.192Z,31.72
2023-05-22T09:43:07.492Z,31.66
2023-05-22T09:45:38.085Z,32.62
2023-05-22T09:48:09.399Z,32.55
2023-05-22T09:50:42.634Z,32.83
2023-05-22T09:53:10.898Z,31.63
2023-05-22T09:55:38.483Z,31.87
2023-05-22T09:58:07.493Z,32.04
2023-05-22T10:00:34.993Z,31.10
2023-05-22T10:03:16.232Z,30.19
2023-05-22T10:05:51.441Z,31.89
2023-05-22T10:08:26.042Z,32.37
2023-05-22T10:10:53.401Z,33.70
2023-05-22T10:13:21.709Z,33.05
2023-05-22T10:15:50.000Z,32.47
2023-05-22T10:18:17.684Z,33.21
2023-05-22T10:20:47.556Z,31.69
2023-05-22T10:23:16.705Z,32.00
2023-05-22T10:25:46.737Z,32.35
2023-05-22T10:28:28.664Z,32.56
2023-05-22T10:31:27.318Z,32.77
2023-05-22T10:34:01.234Z,33.46
2023-05-22T10:37:00.416Z,34.05
2023-05-22T10:39:45.634Z,33.09
2023-05-22T10:42:13.963Z,33.19
2023-05-22T10:44:41.266Z,34.36
2023-05-22T10:47:13.583Z,34.43
2023-05-22T10:49:47.238Z,33.91
2023-05-22T10:52:15.130Z,34.85
2023-05-22T10:54:46.098Z,33.26
2023-05-22T10:57:17.561Z,33.82
2023-05-22T10:59:49.142Z,34.19
2023-05-22T11:02:29.550Z,33.50
2023-05-22T11:05:11.808Z,34.87
2023-05-22T11:07:41.549Z,34.94
2023-05-22T11:10:10.626Z,34.72
2023-05-22T11:12:37.610Z,33.63
2023-05-22T11:15:09.639Z,33.93
2023-05-22T11:17:39.632Z,31.54
2023-05-22T11:20:24.593Z,33.04
2023-05-22T11:23:00.131Z,33.69
2023-05-22T11:25:28.515Z,33.67
2023-05-22T11:27:56.306Z,33.50
2023-05-22T11:30:28.093Z,32.03
2023-05-22T11:32:55.083Z,32.88
2023-05-22T11:35:22.553Z,31.72
2023-05-22T11:37:51.212Z,31.97
2023-05-22T11:40:24.626Z,32.87
2023-05-22T11:42:52.636Z,32.25
2023-05-22T11:45:19.608Z,32.38
2023-05-22T11:47:46.780Z,33.08
2023-05-22T11:50:15.069Z,32.33
2023-05-22T11:52:46.122Z,31.90
2023-05-22T11:55:13.064Z,31.29
2023-05-22T11:57:42.581Z,31.35
2023-05-22T12:00:10.939Z,32.10
2023-05-22T12:02:38.096Z,31.99
2023-05-22T12:05:05.686Z,31.90
2023-05-22T12:07:32.627Z,31.40
2023-05-22T12:10:00.323Z,30.96
2023-05-22T12:12:27.262Z,31.82
2023-05-22T12:14:54.228Z,31.67
2023-05-22T12:17:21.154Z,31.91
2023-05-22T12:19:48.168Z,31.75
2023-05-22T12:22:15.306Z,31.64
2023-05-22T12:24:48.409Z,32.15
2023-05-22T12:27:15.803Z,32.17
2023-05-22T12:29:43.461Z,31.77
2023-05-22T12:32:11.928Z,31.61
2023-05-22T12:34:46.256Z,32.72
2023-05-22T12:37:22.940Z,32.81
2023-05-22T12:39:59.701Z,32.38
2023-05-22T12:42:38.617Z,31.32
2023-05-22T12:45:07.198Z,31.20
2023-05-22T12:47:34.252Z,31.47
2023-05-22T12:50:01.131Z,30.77
2023-05-22T12:52:28.800Z,30.56
2023-05-22T12:54:55.881Z,28.91
2023-05-22T12:57:22.759Z,28.24
2023-05-22T12:59:49.657Z,28.24
2023-05-22T13:02:16.548Z,28.75
2023-05-22T13:04:43.490Z,28.54
2023-05-22T13:07:10.536Z,28.62
2023-05-22T13:09:37.395Z,28.91
2023-05-22T13:12:04.495Z,29.79
2023-05-22T13:14:37.702Z,29.74
2023-05-22T13:17:04.743Z,28.76
2023-05-22T13:19:31.767Z,29.51
2023-05-22T13:21:58.864Z,30.11
2023-05-22T13:24:25.725Z,29.63
2023-05-22T13:26:52.577Z,29.98
2023-05-22T13:29:19.415Z,29.83
2023-05-22T13:31:46.294Z,29.79
2023-05-22T13:34:13.245Z,30.44
2023-05-22T13:36:40.243Z,30.27
2023-05-22T13:39:07.147Z,30.81
2023-05-22T13:41:34.054Z,31.25
2023-05-22T13:44:00.959Z,31.09
2023-05-22T13:46:28.491Z,30.84
2023-05-22T13:48:55.505Z,30.45
2023-05-22T13:51:22.398Z,30.50
2023-05-22T13:53:49.245Z,31.53
2023-05-22T13:56:16.254Z,31.73
2023-05-22T13:58:43.165Z,30.53
2023-05-22T14:01:10.320Z,31.00
2023-05-22T14:03:40.720Z,31.08
2023-05-22T14:06:07.874Z,30.93
2023-05-22T14:08:34.803Z,30.56
2023-05-22T14:11:01.723Z,30.22
2023-05-22T14:13:28.629Z,29.71
2023-05-22T14:15:55.527Z,29.56
2023-05-22T14:18:22.420Z,29.50
2023-05-22T14:20:49.387Z,29.91
2023-05-22T14:23:16.342Z,29.20
2023-05-22T14:25:43.413Z,29.95
2023-05-22T14:28:11.030Z,29.74
2023-05-22T14:30:38.279Z,28.71
2023-05-22T14:33:05.928Z,28.20
2023-05-22T14:35:33.129Z,27.95
2023-05-22T14:38:00.095Z,27.76
2023-05-22T14:40:26.950Z,27.39
2023-05-22T14:42:54.502Z,27.34
2023-05-22T14:45:21.585Z,27.32
2023-05-22T14:47:48.503Z,26.78
2023-05-22T14:50:19.712Z,26.95
2023-05-22T14:52:47.784Z,27.10
2023-05-22T14:55:14.983Z,26.83
2023-05-22T14:57:41.873Z,26.88
2023-05-22T15:00:10.203Z,27.96
2023-05-22T15:02:37.489Z,28.24
2023-05-22T15:05:04.821Z,28.28
2023-05-22T15:07:43.130Z,28.66
2023-05-22T15:10:11.452Z,27.66
2023-05-22T15:12:38.394Z,28.33
2023-05-22T15:15:05.631Z,27.50
2023-05-22T15:17:32.568Z,27.39
2023-05-22T15:19:59.608Z,27.70
2023-05-22T15:22:26.508Z,27.89
2023-05-22T15:25:09.822Z,27.23
2023-05-22T15:27:36.708Z,28.83
2023-05-22T15:30:04.631Z,29.37
2023-05-22T15:32:34.577Z,30.63
2023-05-22T15:35:01.699Z,30.44
2023-05-22T15:37:32.334Z,29.82
2023-05-22T15:40:01.656Z,29.30
2023-05-22T15:42:28.882Z,28.52
2023-05-22T15:44:55.879Z,29.19
2023-05-22T15:47:22.806Z,29.94
2023-05-22T15:49:49.799Z,30.23
2023-05-22T15:52:17.199Z,30.87
2023-05-22T15:54:44.126Z,30.28
2023-05-22T15:57:11.202Z,29.98
2023-05-22T15:59:38.104Z,29.95
2023-05-22T16:02:05.257Z,28.35
2023-05-22T16:04:33.034Z,27.85
2023-05-22T16:06:59.900Z,27.94
2023-05-22T16:09:26.807Z,27.96
2023-05-22T16:11:53.752Z,27.90
2023-05-22T16:14:20.611Z,27.02
2023-05-22T16:16:47.526Z,27.76
2023-05-22T16:19:14.521Z,28.66
2023-05-22T16:21:41.472Z,27.95
2023-05-22T16:24:14.035Z,28.36
2023-05-22T16:26:41.114Z,27.57
2023-05-22T16:29:09.172Z,27.38
2023-05-22T16:31:36.199Z,27.97
2023-05-22T16:34:03.810Z,28.90
2023-05-22T16:36:31.102Z,28.22
2023-05-22T16:38:58.052Z,28.55
2023-05-22T16:41:24.944Z,29.21
2023-05-22T16:43:51.900Z,29.49
2023-05-22T16:46:18.965Z,29.53
2023-05-22T16:48:45.958Z,29.91
2023-05-22T16:51:12.839Z,29.47
2023-05-22T16:53:41.979Z,29.01
2023-05-22T16:56:08.899Z,28.18
2023-05-22T16:58:36.014Z,29.56
2023-05-22T17:01:03.097Z,29.69
2023-05-22T17:03:30.164Z,30.55
2023-05-22T17:05:57.230Z,30.71
2023-05-22T17:08:24.144Z,30.36
2023-05-22T17:10:51.326Z,30.14
2023-05-22T17:13:20.834Z,30.10
2023-05-22T17:15:49.031Z,30.45
2023-05-22T17:18:19.991Z,29.90
2023-05-22T17:20:47.993Z,29.66
2023-05-22T17:23:15.400Z,29.85
2023-05-22T17:25:42.490Z,29.81
2023-05-22T17:28:09.557Z,29.03
2023-05-22T17:30:36.576Z,28.97
2023-05-22T17:33:03.853Z,29.50
2023-05-22T17:35:31.063Z,30.14
2023-05-22T17:37:58.012Z,30.64
2023-05-22T17:40:39.960Z,30.50
2023-05-22T17:43:11.471Z,30.69
2023-05-22T17:45:38.474Z,31.07
2023-05-22T17:48:07.299Z,30.99
2023-05-22T17:50:34.224Z,30.71
2023-05-22T17:53:01.099Z,30.86
2023-05-22T17:55:27.957Z,31.38
2023-05-22T17:57:55.094Z,31.57
2023-05-22T18:00:22.217Z,31.27
2023-05-22T18:02:49.139Z,30.71
2023-05-22T18:05:16.213Z,30.55
2023-05-22T18:07:43.691Z,30.52
2023-05-22T18:10:11.011Z,30.09
2023-05-22T18:12:38.664Z,30.13
2023-05-22T18:15:08.637Z,29.90
2023-05-22T18:17:35.907Z,28.55
2023-05-22T18:20:04.112Z,28.40
2023-05-22T18:22:31.220Z,28.94
2023-05-22T18:24:58.364Z,29.80
2023-05-22T18:27:25.278Z,30.00
2023-05-22T18:29:55.673Z,29.15
2023-05-22T18:32:22.916Z,28.49
2023-05-22T18:34:49.871Z,28.24
2023-05-22T18:37:16.798Z,28.98
2023-05-22T18:39:44.681Z,28.48
2023-05-22T18:42:11.773Z,29.00
2023-05-22T18:44:38.626Z,29.01
2023-05-22T18:47:06.132Z,28.32
2023-05-22T18:49:33.582Z,28.16
2023-05-22T18:52:00.476Z,28.37
2023-05-22T18:54:27.373Z,28.85
2023-05-22T18:56:54.293Z,28.57
2023-05-22T18:59:21.159Z,28.06
2023-05-22T19:01:48.034Z,27.85
2023-05-22T19:04:14.912Z,27.85
2023-05-22T19:06:42.188Z,27.28
2023-05-22T19:09:12.665Z,27.52
2023-05-22T19:11:39.615Z,26.79
2023-05-22T19:14:06.628Z,26.33
2023-05-22T19:16:33.548Z,26.41
2023-05-22T19:19:00.617Z,25.82
2023-05-22T19:21:27.568Z,25.74
2023-05-22T19:23:54.464Z,26.30
2023-05-22T19:26:21.313Z,26.04
2023-05-22T19:28:50.229Z,25.95
2023-05-22T19:31:17.752Z,25.92
2023-05-22T19:33:44.661Z,25.84
2023-05-22T19:36:11.641Z,25.43
2023-05-22T19:38:38.500Z,25.04
2023-05-22T19:41:05.400Z,24.77
2023-05-22T19:43:32.518Z,24.36
2023-05-22T19:45:59.492Z,24.58
2023-05-22T19:48:34.188Z,24.77
2023-05-22T19:51:01.193Z,24.05
2023-05-22T19:53:28.135Z,24.00
2023-05-22T19:55:55.057Z,24.03
2023-05-22T19:58:21.953Z,24.63
2023-05-22T20:00:48.975Z,24.80
2023-05-22T20:03:16.255Z,24.53
2023-05-22T20:05:43.188Z,24.52
2023-05-22T20:08:21.749Z,24.35
2023-05-22T20:10:48.788Z,23.78
2023-05-22T20:13:15.724Z,24.06
2023-05-22T20:15:42.621Z,24.50
2023-05-22T20:18:10.902Z,24.40
2023-05-22T20:20:38.104Z,23.84
2023-05-22T20:23:04.985Z,23.30
2023-05-22T20:25:32.036Z,22.80
2023-05-22T20:27:58.964Z,22.53
2023-05-22T20:30:25.940Z,23.21
2023-05-22T20:32:53.210Z,22.66
2023-05-22T20:35:20.327Z,22.76
2023-05-22T20:37:47.711Z,22.67
2023-05-22T20:40:16.131Z,23.18
2023-05-22T20:42:43.208Z,23.13
2023-05-22T20:45:13.608Z,22.56
2023-05-22T20:47:41.627Z,23.10
2023-05-22T20:50:09.265Z,23.18
2023-05-22T20:52:37.476Z,23.04
2023-05-22T20:55:05.201Z,23.26
2023-05-22T20:57:32.111Z,22.97
2023-05-22T20:59:59.975Z,22.74
2023-05-22T21:02:26.921Z,23.19
2023-05-22T21:04:53.820Z,23.69
2023-05-22T21:07:20.669Z,23.28
2023-05-22T21:09:47.602Z,23.13
2023-05-22T21:12:14.527Z,23.43
2023-05-22T21:14:43.595Z,22.82
2023-05-22T21:17:10.878Z,22.96
2023-05-22T21:19:39.766Z,23.32
2023-05-22T21:22:06.659Z,23.40
2023-05-22T21:24:33.532Z,23.13
2023-05-22T21:27:00.672Z,23.31
2023-05-22T21:29:27.585Z,22.76
2023-05-22T21:31:54.492Z,22.97
2023-05-22T21:34:21.376Z,22.86
2023-05-22T21:36:48.266Z,22.39
2023-05-22T21:39:16.367Z,22.36
2023-05-22T21:41:43.249Z,22.17
2023-05-22T21:44:10.209Z,22.07
2023-05-22T21:46:37.470Z,21.98
2023-05-22T21:49:06.264Z,21.75
2023-05-22T21:51:33.352Z,21.52
2023-05-22T21:54:00.286Z,21.70
2023-05-22T21:56:27.259Z,21.77
2023-05-22T21:58:54.151Z,21.46
2023-05-22T22:01:21.518Z,21.50
2023-05-22T22:03:48.494Z,22.09
2023-05-22T22:06:15.663Z,21.79
2023-05-22T22:08:42.538Z,21.79
2023-05-22T22:11:09.459Z,22.05
2023-05-22T22:13:36.658Z,22.33
2023-05-22T22:16:03.610Z,22.30
2023-05-22T22:18:33.132Z,22.10
2023-05-22T22:21:02.481Z,22.21
2023-05-22T22:23:29.887Z,22.37
2023-05-22T22:25:56.805Z,22.52
2023-05-22T22:28:24.758Z,22.80
2023-05-22T22:30:55.036Z,21.46
2023-05-22T22:33:22.956Z,21.41
2023-05-22T22:35:50.014Z,21.91
2023-05-22T22:38:17.994Z,21.82
2023-05-22T22:40:44.916Z,21.51
2023-05-22T22:43:11.904Z,21.81
2023-05-22T22:45:40.319Z,21.52
2023-05-22T22:48:07.569Z,21.60
2023-05-22T22:50:34.569Z,21.76
2023-05-22T22:53:01.723Z,21.12
2023-05-22T22:55:28.792Z,21.13
2023-05-22T22:57:55.854Z,21.00
2023-05-22T23:00:22.789Z,20.70
2023-05-22T23:02:49.698Z,20.38
2023-05-22T23:05:20.211Z,20.40
2023-05-22T23:07:48.306Z,20.93
2023-05-22T23:10:15.777Z,21.02
2023-05-22T23:12:42.869Z,21.25
2023-05-22T23:15:11.271Z,21.23
2023-05-22T23:17:38.504Z,21.05
2023-05-22T23:20:06.165Z,21.06
2023-05-22T23:22:33.061Z,20.62
2023-05-22T23:24:59.893Z,20.61
2023-05-22T23:27:26.986Z,20.92
2023-05-22T23:29:53.932Z,20.99
2023-05-22T23:32:21.648Z,20.76
2023-05-22T23:34:48.555Z,20.91
2023-05-22T23:37:15.614Z,20.84
2023-05-22T23:39:42.532Z,21.16
2023-05-22T23:42:12.542Z,20.78
2023-05-22T23:44:39.697Z,21.33
2023-05-22T23:47:07.049Z,21.50
2023-05-22T23:49:34.152Z,21.08
2023-05-22T23:52:01.027Z,20.11
2023-05-22T23:54:27.997Z,21.17
2023-05-22T23:56:54.923Z,21.33
2023-05-22T23:59:22.145Z,20.68
